sensor_id;sensor_type;location;lat;lon;timestamp;pressure;altitude;pressure_sealevel;temperature;humidity
10510;BME280;5303;53.266;10.410;2023-04-27T00:00:55;101644.97;;;2.85;72.05
10510;BME280;5303;53.266;10.410;2023-04-27T00:03:21;101647.47;;;2.82;72.38
10510;BME280;5303;53.266;10.410;2023-04-27T00:05:46;101650.06;;;2.82;72.80
10510;BME280;5303;53.266;10.410;2023-04-27T00:08:12;101652.88;;;2.87;73.25
10510;BME280;5303;53.266;10.410;2023-04-27T00:10:37;101644.97;;;2.85;72.96
10510;BME280;5303;53.266;10.410;2023-04-27T00:13:02;101645.94;;;2.87;73.03
10510;BME280;5303;53.266;10.410;2023-04-27T00:15:28;101645.81;;;2.84;73.15
10510;BME280;5303;53.266;10.410;2023-04-27T00:17:54;101647.56;;;2.85;72.82
10510;BME280;5303;53.266;10.410;2023-04-27T00:20:19;101653.63;;;2.84;73.14
10510;BME280;5303;53.266;10.410;2023-04-27T00:22:45;101652.72;;;2.84;72.94
10510;BME280;5303;53.266;10.410;2023-04-27T00:25:11;101649.25;;;2.83;72.84
10510;BME280;5303;53.266;10.410;2023-04-27T00:27:36;101650.13;;;2.84;72.83
10510;BME280;5303;53.266;10.410;2023-04-27T00:30:01;101649.13;;;2.80;72.91
10510;BME280;5303;53.266;10.410;2023-04-27T00:32:27;101645.50;;;2.77;73.63
10510;BME280;5303;53.266;10.410;2023-04-27T00:34:52;101638.59;;;2.77;73.52
10510;BME280;5303;53.266;10.410;2023-04-27T00:37:17;101642.31;;;2.84;73.58
10510;BME280;5303;53.266;10.410;2023-04-27T00:39:43;101643.41;;;2.89;73.44
10510;BME280;5303;53.266;10.410;2023-04-27T00:42:09;101637.53;;;2.95;73.62
10510;BME280;5303;53.266;10.410;2023-04-27T00:44:38;101634.31;;;3.00;73.87
10510;BME280;5303;53.266;10.410;2023-04-27T00:47:03;101639.63;;;3.03;73.76
10510;BME280;5303;53.266;10.410;2023-04-27T00:49:30;101640.72;;;3.08;73.46
10510;BME280;5303;53.266;10.410;2023-04-27T00:51:55;101633.91;;;3.12;73.02
10510;BME280;5303;53.266;10.410;2023-04-27T00:54:21;101632.91;;;3.08;72.68
10510;BME280;5303;53.266;10.410;2023-04-27T00:56:50;101631.88;;;3.05;73.34
10510;BME280;5303;53.266;10.410;2023-04-27T00:59:17;101634.47;;;3.05;73.06
10510;BME280;5303;53.266;10.410;2023-04-27T01:01:43;101633.31;;;2.97;73.44
10510;BME280;5303;53.266;10.410;2023-04-27T01:04:09;101642.69;;;2.93;73.23
10510;BME280;5303;53.266;10.410;2023-04-27T01:06:34;101644.47;;;2.94;73.47
10510;BME280;5303;53.266;10.410;2023-04-27T01:08:59;101652.09;;;2.89;73.80
10510;BME280;5303;53.266;10.410;2023-04-27T01:11:25;101645.81;;;2.84;73.68
10510;BME280;5303;53.266;10.410;2023-04-27T01:13:51;101649.38;;;2.86;73.54
10510;BME280;5303;53.266;10.410;2023-04-27T01:16:17;101644.84;;;2.82;74.06
10510;BME280;5303;53.266;10.410;2023-04-27T01:18:42;101644.75;;;2.79;73.90
10510;BME280;5303;53.266;10.410;2023-04-27T01:21:08;101647.34;;;2.79;74.06
10510;BME280;5303;53.266;10.410;2023-04-27T01:23:33;101648.19;;;2.78;74.24
10510;BME280;5303;53.266;10.410;2023-04-27T01:25:59;101646.25;;;2.74;74.46
10510;BME280;5303;53.266;10.410;2023-04-27T01:28:24;101659.22;;;2.73;74.35
10510;BME280;5303;53.266;10.410;2023-04-27T01:30:49;101654.78;;;2.70;74.67
10510;BME280;5303;53.266;10.410;2023-04-27T01:33:15;101663.41;;;2.69;74.68
10510;BME280;5303;53.266;10.410;2023-04-27T01:35:40;101656.38;;;2.67;74.86
10510;BME280;5303;53.266;10.410;2023-04-27T01:38:05;101657.09;;;2.64;74.53
10510;BME280;5303;53.266;10.410;2023-04-27T01:40:31;101657.09;;;2.64;74.70
10510;BME280;5303;53.266;10.410;2023-04-27T01:42:56;101659.88;;;2.67;74.94
10510;BME280;5303;53.266;10.410;2023-04-27T01:45:21;101669.31;;;2.65;75.14
10510;BME280;5303;53.266;10.410;2023-04-27T01:47:49;101668.28;;;2.62;75.05
10510;BME280;5303;53.266;10.410;2023-04-27T01:50:15;101665.75;;;2.63;75.17
10510;BME280;5303;53.266;10.410;2023-04-27T01:52:40;101672.66;;;2.63;74.99
10510;BME280;5303;53.266;10.410;2023-04-27T01:55:06;101676.03;;;2.60;75.73
10510;BME280;5303;53.266;10.410;2023-04-27T01:57:31;101676.09;;;2.62;75.42
10510;BME280;5303;53.266;10.410;2023-04-27T01:59:56;101679.59;;;2.62;75.55
10510;BME280;5303;53.266;10.410;2023-04-27T02:02:22;101689.41;;;2.68;75.19
10510;BME280;5303;53.266;10.410;2023-04-27T02:04:47;101684.03;;;2.65;75.41
10510;BME280;5303;53.266;10.410;2023-04-27T02:07:12;101687.94;;;2.74;75.38
10510;BME280;5303;53.266;10.410;2023-04-27T02:09:37;101697.16;;;2.66;75.74
10510;BME280;5303;53.266;10.410;2023-04-27T02:12:03;101698.66;;;2.61;75.51
10510;BME280;5303;53.266;10.410;2023-04-27T02:14:28;101704.69;;;2.60;75.67
10510;BME280;5303;53.266;10.410;2023-04-27T02:16:53;101697.44;;;2.53;75.82
10510;BME280;5303;53.266;10.410;2023-04-27T02:19:19;101707.78;;;2.51;75.76
10510;BME280;5303;53.266;10.410;2023-04-27T02:21:44;101705.72;;;2.44;76.30
10510;BME280;5303;53.266;10.410;2023-04-27T02:24:10;101709.09;;;2.42;76.37
10510;BME280;5303;53.266;10.410;2023-04-27T02:26:35;101704.66;;;2.39;76.47
10510;BME280;5303;53.266;10.410;2023-04-27T02:29:00;101703.00;;;2.41;76.50
10510;BME280;5303;53.266;10.410;2023-04-27T02:31:27;101709.91;;;2.41;76.80
10510;BME280;5303;53.266;10.410;2023-04-27T02:33:52;101709.03;;;2.40;76.64
10510;BME280;5303;53.266;10.410;2023-04-27T02:36:17;101708.13;;;2.40;76.57
10510;BME280;5303;53.266;10.410;2023-04-27T02:38:43;101707.44;;;2.44;76.81
10510;BME280;5303;53.266;10.410;2023-04-27T02:41:08;101709.78;;;2.38;76.84
10510;BME280;5303;53.266;10.410;2023-04-27T02:43:33;101718.44;;;2.37;77.09
10510;BME280;5303;53.266;10.410;2023-04-27T02:46:03;101715.00;;;2.38;77.08
10510;BME280;5303;53.266;10.410;2023-04-27T02:48:29;101709.50;;;2.31;77.23
10510;BME280;5303;53.266;10.410;2023-04-27T02:50:54;101712.88;;;2.29;77.17
10510;BME280;5303;53.266;10.410;2023-04-27T02:53:20;101707.72;;;2.30;77.49
10510;BME280;5303;53.266;10.410;2023-04-27T02:55:46;101716.38;;;2.29;77.24
10510;BME280;5303;53.266;10.410;2023-04-27T02:58:15;101709.31;;;2.27;77.42
10510;BME280;5303;53.266;10.410;2023-04-27T03:00:41;101712.88;;;2.29;77.11
10510;BME280;5303;53.266;10.410;2023-04-27T03:03:07;101710.16;;;2.26;77.36
10510;BME280;5303;53.266;10.410;2023-04-27T03:05:33;101713.63;;;2.26;77.20
10510;BME280;5303;53.266;10.410;2023-04-27T03:07:59;101723.34;;;2.30;77.15
10510;BME280;5303;53.266;10.410;2023-04-27T03:10:24;101715.34;;;2.26;77.16
10510;BME280;5303;53.266;10.410;2023-04-27T03:12:49;101721.44;;;2.26;77.60
10510;BME280;5303;53.266;10.410;2023-04-27T03:15:15;101715.41;;;2.27;77.42
10510;BME280;5303;53.266;10.410;2023-04-27T03:17:40;101717.84;;;2.24;77.36
10510;BME280;5303;53.266;10.410;2023-04-27T03:20:06;101715.25;;;2.24;77.55
10510;BME280;5303;53.266;10.410;2023-04-27T03:22:35;101723.88;;;2.23;77.68
10510;BME280;5303;53.266;10.410;2023-04-27T03:25:00;101722.94;;;2.21;77.73
10510;BME280;5303;53.266;10.410;2023-04-27T03:27:25;101722.09;;;2.22;77.62
10510;BME280;5303;53.266;10.410;2023-04-27T03:29:51;101721.97;;;2.19;77.67
10510;BME280;5303;53.266;10.410;2023-04-27T03:32:19;101721.16;;;2.20;77.61
10510;BME280;5303;53.266;10.410;2023-04-27T03:34:44;101719.38;;;2.19;77.70
10510;BME280;5303;53.266;10.410;2023-04-27T03:37:10;101726.22;;;2.17;77.78
10510;BME280;5303;53.266;10.410;2023-04-27T03:39:35;101730.53;;;2.17;77.85
10510;BME280;5303;53.266;10.410;2023-04-27T03:42:01;101720.88;;;2.14;78.33
10510;BME280;5303;53.266;10.410;2023-04-27T03:44:26;101727.59;;;2.09;78.08
10510;BME280;5303;53.266;10.410;2023-04-27T03:46:52;101727.38;;;2.05;78.09
10510;BME280;5303;53.266;10.410;2023-04-27T03:49:17;101730.59;;;1.99;78.38
10510;BME280;5303;53.266;10.410;2023-04-27T03:51:42;101726.88;;;1.94;78.47
10510;BME280;5303;53.266;10.410;2023-04-27T03:54:08;101728.31;;;1.87;78.48
10510;BME280;5303;53.266;10.410;2023-04-27T03:56:34;101734.09;;;1.82;78.56
10510;BME280;5303;53.266;10.410;2023-04-27T03:58:59;101734.78;;;1.78;78.74
10510;BME280;5303;53.266;10.410;2023-04-27T04:01:25;101737.25;;;1.75;78.97
10510;BME280;5303;53.266;10.410;2023-04-27T04:03:50;101736.28;;;1.72;79.06
10510;BME280;5303;53.266;10.410;2023-04-27T04:06:15;101739.56;;;1.68;79.19
10510;BME280;5303;53.266;10.410;2023-04-27T04:08:40;101739.25;;;1.62;78.86
10510;BME280;5303;53.266;10.410;2023-04-27T04:11:06;101732.13;;;1.58;79.33
10510;BME280;5303;53.266;10.410;2023-04-27T04:13:31;101737.91;;;1.53;79.47
10510;BME280;5303;53.266;10.410;2023-04-27T04:16:01;101736.06;;;1.50;79.34
10510;BME280;5303;53.266;10.410;2023-04-27T04:18:26;101734.97;;;1.45;79.29
10510;BME280;5303;53.266;10.410;2023-04-27T04:20:52;101739.09;;;1.41;79.63
10510;BME280;5303;53.266;10.410;2023-04-27T04:23:17;101739.84;;;1.39;79.61
10510;BME280;5303;53.266;10.410;2023-04-27T04:25:44;101744.91;;;1.36;79.76
10510;BME280;5303;53.266;10.410;2023-04-27T04:28:09;101750.25;;;1.39;79.65
10510;BME280;5303;53.266;10.410;2023-04-27T04:30:35;101746.84;;;1.40;79.83
10510;BME280;5303;53.266;10.410;2023-04-27T04:33:00;101750.56;;;1.45;80.03
10510;BME280;5303;53.266;10.410;2023-04-27T04:35:25;101748.19;;;1.50;80.13
10510;BME280;5303;53.266;10.410;2023-04-27T04:37:51;101757.00;;;1.53;80.16
10510;BME280;5303;53.266;10.410;2023-04-27T04:40:16;101751.03;;;1.54;79.89
10510;BME280;5303;53.266;10.410;2023-04-27T04:42:41;101757.19;;;1.56;80.27
10510;BME280;5303;53.266;10.410;2023-04-27T04:45:07;101763.47;;;1.61;80.27
10510;BME280;5303;53.266;10.410;2023-04-27T04:47:32;101753.38;;;1.67;80.16
10510;BME280;5303;53.266;10.410;2023-04-27T04:49:58;101763.16;;;1.73;80.50
10510;BME280;5303;53.266;10.410;2023-04-27T04:52:24;101756.63;;;1.81;80.24
10510;BME280;5303;53.266;10.410;2023-04-27T04:54:51;101765.69;;;1.89;80.33
10510;BME280;5303;53.266;10.410;2023-04-27T04:57:17;101764.34;;;1.97;80.40
10510;BME280;5303;53.266;10.410;2023-04-27T04:59:42;101760.47;;;2.07;80.58
10510;BME280;5303;53.266;10.410;2023-04-27T05:02:07;101765.41;;;2.20;80.38
10510;BME280;5303;53.266;10.410;2023-04-27T05:04:32;101769.50;;;2.35;80.38
10510;BME280;5303;53.266;10.410;2023-04-27T05:06:58;101769.28;;;2.48;80.24
10510;BME280;5303;53.266;10.410;2023-04-27T05:09:24;101769.69;;;2.57;79.93
10510;BME280;5303;53.266;10.410;2023-04-27T05:11:49;101764.94;;;2.68;79.59
10510;BME280;5303;53.266;10.410;2023-04-27T05:14:14;101770.63;;;2.78;79.46
10510;BME280;5303;53.266;10.410;2023-04-27T05:16:39;101776.50;;;2.94;79.33
10510;BME280;5303;53.266;10.410;2023-04-27T05:19:05;101774.03;;;2.97;78.56
10510;BME280;5303;53.266;10.410;2023-04-27T05:21:30;101774.34;;;3.04;78.36
10510;BME280;5303;53.266;10.410;2023-04-27T05:23:55;101780.00;;;3.15;78.44
10510;BME280;5303;53.266;10.410;2023-04-27T05:26:21;101780.16;;;3.18;77.55
10510;BME280;5303;53.266;10.410;2023-04-27T05:28:46;101774.19;;;3.21;77.27
10510;BME280;5303;53.266;10.410;2023-04-27T05:31:13;101776.13;;;3.26;77.66
10510;BME280;5303;53.266;10.410;2023-04-27T05:33:38;101781.63;;;3.32;77.30
10510;BME280;5303;53.266;10.410;2023-04-27T05:36:04;101782.13;;;3.44;76.48
10510;BME280;5303;53.266;10.410;2023-04-27T05:38:29;101786.78;;;3.52;76.01
10510;BME280;5303;53.266;10.410;2023-04-27T05:40:55;101783.59;;;3.59;76.34
10510;BME280;5303;53.266;10.410;2023-04-27T05:43:22;101777.94;;;3.69;76.53
10510;BME280;5303;53.266;10.410;2023-04-27T05:45:47;101766.94;;;3.78;75.97
10510;BME280;5303;53.266;10.410;2023-04-27T05:48:12;101771.78;;;3.89;75.63
10510;BME280;5303;53.266;10.410;2023-04-27T05:50:38;101772.94;;;3.97;75.72
10510;BME280;5303;53.266;10.410;2023-04-27T05:53:03;101778.53;;;4.07;74.58
10510;BME280;5303;53.266;10.410;2023-04-27T05:55:30;101778.03;;;4.17;73.88
10510;BME280;5303;53.266;10.410;2023-04-27T05:57:55;101777.63;;;4.28;72.86
10510;BME280;5303;53.266;10.410;2023-04-27T06:00:20;101772.31;;;4.49;73.17
10510;BME280;5303;53.266;10.410;2023-04-27T06:02:46;101784.66;;;4.53;71.78
10510;BME280;5303;53.266;10.410;2023-04-27T06:05:12;101777.16;;;4.62;71.35
10510;BME280;5303;53.266;10.410;2023-04-27T06:07:37;101782.72;;;4.72;71.35
10510;BME280;5303;53.266;10.410;2023-04-27T06:10:02;101785.69;;;4.81;71.06
10510;BME280;5303;53.266;10.410;2023-04-27T06:12:28;101786.31;;;4.99;71.13
10510;BME280;5303;53.266;10.410;2023-04-27T06:14:53;101785.97;;;5.14;70.58
10510;BME280;5303;53.266;10.410;2023-04-27T06:17:20;101790.78;;;5.27;69.45
10510;BME280;5303;53.266;10.410;2023-04-27T06:19:45;101780.28;;;5.26;69.50
10510;BME280;5303;53.266;10.410;2023-04-27T06:22:11;101796.75;;;5.23;69.42
10510;BME280;5303;53.266;10.410;2023-04-27T06:24:36;101800.97;;;5.19;69.22
10510;BME280;5303;53.266;10.410;2023-04-27T06:27:01;101795.59;;;5.15;69.23
10510;BME280;5303;53.266;10.410;2023-04-27T06:29:27;101800.97;;;5.19;69.08
10510;BME280;5303;53.266;10.410;2023-04-27T06:31:52;101790.63;;;5.23;69.49
10510;BME280;5303;53.266;10.410;2023-04-27T06:34:17;101802.91;;;5.25;69.96
10510;BME280;5303;53.266;10.410;2023-04-27T06:36:42;101791.75;;;5.31;69.32
10510;BME280;5303;53.266;10.410;2023-04-27T06:39:08;101796.28;;;5.35;68.46
10510;BME280;5303;53.266;10.410;2023-04-27T06:41:33;101793.22;;;5.48;66.78
10510;BME280;5303;53.266;10.410;2023-04-27T06:43:58;101790.56;;;5.46;67.47
10510;BME280;5303;53.266;10.410;2023-04-27T06:46:23;101790.59;;;5.48;67.33
10510;BME280;5303;53.266;10.410;2023-04-27T06:48:49;101792.94;;;5.66;65.91
10510;BME280;5303;53.266;10.410;2023-04-27T06:51:14;101803.59;;;5.72;65.05
10510;BME280;5303;53.266;10.410;2023-04-27T06:53:40;101801.06;;;5.73;64.80
10510;BME280;5303;53.266;10.410;2023-04-27T06:56:09;101794.72;;;5.67;64.98
10510;BME280;5303;53.266;10.410;2023-04-27T06:58:34;101796.13;;;5.83;64.96
10510;BME280;5303;53.266;10.410;2023-04-27T07:01:00;101801.28;;;5.81;65.47
10510;BME280;5303;53.266;10.410;2023-04-27T07:03:25;101799.72;;;5.86;65.45
10510;BME280;5303;53.266;10.410;2023-04-27T07:05:50;101798.59;;;6.05;64.28
10510;BME280;5303;53.266;10.410;2023-04-27T07:08:16;101794.50;;;6.13;64.47
10510;BME280;5303;53.266;10.410;2023-04-27T07:10:41;101791.97;;;6.16;64.34
10510;BME280;5303;53.266;10.410;2023-04-27T07:13:06;101792.03;;;6.19;63.46
10510;BME280;5303;53.266;10.410;2023-04-27T07:15:31;101798.97;;;6.17;63.81
10510;BME280;5303;53.266;10.410;2023-04-27T07:17:57;101804.31;;;6.20;63.45
10510;BME280;5303;53.266;10.410;2023-04-27T07:20:22;101807.34;;;6.34;63.66
10510;BME280;5303;53.266;10.410;2023-04-27T07:22:48;101805.22;;;6.51;62.69
10510;BME280;5303;53.266;10.410;2023-04-27T07:25:13;101812.50;;;6.61;60.85
10510;BME280;5303;53.266;10.410;2023-04-27T07:27:39;101809.88;;;6.61;59.89
10510;BME280;5303;53.266;10.410;2023-04-27T07:30:06;101807.00;;;6.52;60.27
10510;BME280;5303;53.266;10.410;2023-04-27T07:32:33;101824.81;;;6.63;61.09
10510;BME280;5303;53.266;10.410;2023-04-27T07:34:59;101821.69;;;6.75;59.36
10510;BME280;5303;53.266;10.410;2023-04-27T07:37:24;101830.03;;;6.93;59.14
10510;BME280;5303;53.266;10.410;2023-04-27T07:39:50;101834.81;;;7.07;58.20
10510;BME280;5303;53.266;10.410;2023-04-27T07:42:17;101833.25;;;7.15;57.66
10510;BME280;5303;53.266;10.410;2023-04-27T07:44:43;101835.22;;;7.22;56.75
10510;BME280;5303;53.266;10.410;2023-04-27T07:47:08;101831.66;;;7.20;56.40
10510;BME280;5303;53.266;10.410;2023-04-27T07:49:34;101826.22;;;7.14;57.35
10510;BME280;5303;53.266;10.410;2023-04-27T07:51:59;101822.06;;;7.20;57.05
10510;BME280;5303;53.266;10.410;2023-04-27T07:54:25;101834.09;;;7.14;57.46
10510;BME280;5303;53.266;10.410;2023-04-27T07:56:50;101833.84;;;7.05;58.14
10510;BME280;5303;53.266;10.410;2023-04-27T07:59:16;101834.69;;;7.04;58.67
10510;BME280;5303;53.266;10.410;2023-04-27T08:01:41;101830.47;;;7.09;59.46
10510;BME280;5303;53.266;10.410;2023-04-27T08:04:06;101828.88;;;7.47;55.51
10510;BME280;5303;53.266;10.410;2023-04-27T08:06:32;101824.16;;;7.67;56.94
10510;BME280;5303;53.266;10.410;2023-04-27T08:08:57;101823.63;;;7.82;56.81
10510;BME280;5303;53.266;10.410;2023-04-27T08:11:26;101830.56;;;7.79;56.63
10510;BME280;5303;53.266;10.410;2023-04-27T08:13:51;101824.47;;;7.80;56.36
10510;BME280;5303;53.266;10.410;2023-04-27T08:16:16;101829.97;;;7.91;54.34
10510;BME280;5303;53.266;10.410;2023-04-27T08:18:43;101837.84;;;7.90;53.73
10510;BME280;5303;53.266;10.410;2023-04-27T08:21:08;101835.16;;;7.88;53.35
10510;BME280;5303;53.266;10.410;2023-04-27T08:23:34;101832.63;;;7.93;52.32
10510;BME280;5303;53.266;10.410;2023-04-27T08:26:01;101838.72;;;7.90;53.21
10510;BME280;5303;53.266;10.410;2023-04-27T08:28:26;101844.63;;;7.82;53.33
10510;BME280;5303;53.266;10.410;2023-04-27T08:30:51;101837.09;;;7.97;52.13
10510;BME280;5303;53.266;10.410;2023-04-27T08:33:17;101826.59;;;7.97;51.89
10510;BME280;5303;53.266;10.410;2023-04-27T08:35:42;101831.13;;;8.02;52.56
10510;BME280;5303;53.266;10.410;2023-04-27T08:38:07;101820.69;;;8.07;49.79
10510;BME280;5303;53.266;10.410;2023-04-27T08:40:33;101812.78;;;8.05;50.05
10510;BME280;5303;53.266;10.410;2023-04-27T08:42:59;101812.78;;;8.05;49.36
10510;BME280;5303;53.266;10.410;2023-04-27T08:45:25;101807.91;;;8.21;49.93
10510;BME280;5303;53.266;10.410;2023-04-27T08:47:51;101811.59;;;8.29;49.25
10510;BME280;5303;53.266;10.410;2023-04-27T08:50:17;101810.03;;;8.37;48.02
10510;BME280;5303;53.266;10.410;2023-04-27T08:52:46;101810.19;;;8.43;47.47
10510;BME280;5303;53.266;10.410;2023-04-27T08:55:12;101807.41;;;8.37;47.32
10510;BME280;5303;53.266;10.410;2023-04-27T08:57:38;101801.38;;;8.41;48.27
10510;BME280;5303;53.266;10.410;2023-04-27T09:00:04;101810.78;;;8.33;47.97
10510;BME280;5303;53.266;10.410;2023-04-27T09:02:44;101809.94;;;8.34;47.52
10510;BME280;5303;53.266;10.410;2023-04-27T09:05:17;101811.50;;;8.26;48.31
10510;BME280;5303;53.266;10.410;2023-04-27T09:07:55;101802.50;;;8.15;48.86
10510;BME280;5303;53.266;10.410;2023-04-27T09:10:20;101800.44;;;8.01;47.98
10510;BME280;5303;53.266;10.410;2023-04-27T09:12:59;101807.25;;;7.93;49.32
10510;BME280;5303;53.266;10.410;2023-04-27T09:15:26;101804.75;;;7.98;49.78
10510;BME280;5303;53.266;10.410;2023-04-27T09:17:52;101804.94;;;8.07;49.41
10510;BME280;5303;53.266;10.410;2023-04-27T09:20:18;101809.28;;;8.05;49.17
10510;BME280;5303;53.266;10.410;2023-04-27T09:22:51;101803.25;;;8.09;49.75
10510;BME280;5303;53.266;10.410;2023-04-27T09:25:27;101797.25;;;8.15;50.23
10510;BME280;5303;53.266;10.410;2023-04-27T09:27:53;101802.91;;;8.33;49.70
10510;BME280;5303;53.266;10.410;2023-04-27T09:30:19;101799.56;;;8.39;47.31
10510;BME280;5303;53.266;10.410;2023-04-27T09:32:51;101797.25;;;8.54;47.73
10510;BME280;5303;53.266;10.410;2023-04-27T09:35:23;101796.41;;;8.56;48.04
10510;BME280;5303;53.266;10.410;2023-04-27T09:37:49;101798.38;;;8.66;48.61
10510;BME280;5303;53.266;10.410;2023-04-27T09:40:18;101793.25;;;8.73;47.42
10510;BME280;5303;53.266;10.410;2023-04-27T09:42:45;101792.66;;;8.87;47.15
10510;BME280;5303;53.266;10.410;2023-04-27T09:45:10;101793.16;;;9.12;46.05
10510;BME280;5303;53.266;10.410;2023-04-27T09:47:36;101787.25;;;9.27;45.23
10510;BME280;5303;53.266;10.410;2023-04-27T09:50:01;101783.97;;;9.40;45.28
10510;BME280;5303;53.266;10.410;2023-04-27T09:52:27;101785.97;;;9.53;45.08
10510;BME280;5303;53.266;10.410;2023-04-27T09:54:56;101786.88;;;9.53;45.36
10510;BME280;5303;53.266;10.410;2023-04-27T10:01:05;101771.16;;;9.60;44.42
10510;BME280;5303;53.266;10.410;2023-04-27T10:03:29;101780.91;;;9.65;44.96
10510;BME280;5303;53.266;10.410;2023-04-27T10:08:28;101782.16;;;9.90;43.38
10510;BME280;5303;53.266;10.410;2023-04-27T10:10:53;101790.31;;;10.04;43.76
10510;BME280;5303;53.266;10.410;2023-04-27T10:13:22;101775.38;;;10.04;43.84
10510;BME280;5303;53.266;10.410;2023-04-27T10:15:48;101776.00;;;9.90;43.52
10510;BME280;5303;53.266;10.410;2023-04-27T10:18:25;101777.59;;;9.78;44.59
10510;BME280;5303;53.266;10.410;2023-04-27T10:20:51;101773.16;;;9.74;39.62
10510;BME280;5303;53.266;10.410;2023-04-27T10:23:23;101775.50;;;9.56;40.96
10510;BME280;5303;53.266;10.410;2023-04-27T10:25:49;101774.63;;;9.57;40.49
10510;BME280;5303;53.266;10.410;2023-04-27T10:28:16;101770.25;;;9.59;41.97
10510;BME280;5303;53.266;10.410;2023-04-27T10:30:48;101770.88;;;9.43;42.51
10510;BME280;5303;53.266;10.410;2023-04-27T10:33:21;101768.34;;;9.49;41.61
10510;BME280;5303;53.266;10.410;2023-04-27T10:35:54;101780.59;;;9.47;41.82
10510;BME280;5303;53.266;10.410;2023-04-27T10:38:25;101766.63;;;9.51;41.94
10510;BME280;5303;53.266;10.410;2023-04-27T10:43:24;101772.41;;;9.81;44.45
10510;BME280;5303;53.266;10.410;2023-04-27T10:45:51;101776.09;;;9.93;44.00
10510;BME280;5303;53.266;10.410;2023-04-27T10:48:16;101778.75;;;9.94;42.23
10510;BME280;5303;53.266;10.410;2023-04-27T10:50:45;101771.88;;;10.05;43.82
10510;BME280;5303;53.266;10.410;2023-04-27T10:53:11;101770.22;;;10.12;42.65
10510;BME280;5303;53.266;10.410;2023-04-27T10:55:36;101771.31;;;10.26;40.20
10510;BME280;5303;53.266;10.410;2023-04-27T10:58:02;101772.59;;;10.59;40.34
10510;BME280;5303;53.266;10.410;2023-04-27T11:00:38;101778.88;;;10.68;39.92
10510;BME280;5303;53.266;10.410;2023-04-27T11:03:12;101769.34;;;10.81;39.77
10510;BME280;5303;53.266;10.410;2023-04-27T11:05:38;101771.28;;;10.98;39.78
10510;BME280;5303;53.266;10.410;2023-04-27T11:08:08;101777.50;;;11.03;41.42
10510;BME280;5303;53.266;10.410;2023-04-27T11:10:34;101772.25;;;11.04;41.31
10510;BME280;5303;53.266;10.410;2023-04-27T11:13:22;101768.78;;;11.10;40.23
10510;BME280;5303;53.266;10.410;2023-04-27T11:15:51;101773.75;;;10.82;39.94
10510;BME280;5303;53.266;10.410;2023-04-27T11:18:21;101772.63;;;10.62;39.58
10510;BME280;5303;53.266;10.410;2023-04-27T11:20:49;101774.38;;;10.58;39.21
10510;BME280;5303;53.266;10.410;2023-04-27T11:23:25;101769.91;;;10.53;38.09
10510;BME280;5303;53.266;10.410;2023-04-27T11:25:51;101763.06;;;10.70;39.60
10510;BME280;5303;53.266;10.410;2023-04-27T11:28:17;101764.13;;;10.84;39.34
10510;BME280;5303;53.266;10.410;2023-04-27T11:30:43;101766.03;;;10.99;39.32
10510;BME280;5303;53.266;10.410;2023-04-27T11:33:09;101767.03;;;11.12;36.49
10510;BME280;5303;53.266;10.410;2023-04-27T11:35:35;101780.28;;;11.15;36.68
10510;BME280;5303;53.266;10.410;2023-04-27T11:38:00;101759.16;;;11.16;36.41
10510;BME280;5303;53.266;10.410;2023-04-27T11:40:25;101763.47;;;11.04;37.43
10510;BME280;5303;53.266;10.410;2023-04-27T11:42:59;101772.19;;;11.00;37.22
10510;BME280;5303;53.266;10.410;2023-04-27T11:45:27;101758.06;;;10.94;37.75
10510;BME280;5303;53.266;10.410;2023-04-27T11:47:52;101772.97;;;10.89;38.24
10510;BME280;5303;53.266;10.410;2023-04-27T11:50:18;101775.91;;;11.18;38.16
10510;BME280;5303;53.266;10.410;2023-04-27T11:52:48;101775.88;;;11.14;36.53
10510;BME280;5303;53.266;10.410;2023-04-27T11:55:13;101775.09;;;11.24;37.29
10510;BME280;5303;53.266;10.410;2023-04-27T11:57:41;101763.69;;;11.28;37.23
10510;BME280;5303;53.266;10.410;2023-04-27T12:00:07;101763.59;;;11.19;37.69
10510;BME280;5303;53.266;10.410;2023-04-27T12:02:38;101760.97;;;11.20;37.97
10510;BME280;5303;53.266;10.410;2023-04-27T12:05:03;101770.66;;;11.23;38.36
10510;BME280;5303;53.266;10.410;2023-04-27T12:07:29;101773.28;;;11.20;37.93
10510;BME280;5303;53.266;10.410;2023-04-27T12:09:55;101768.84;;;11.16;38.91
10510;BME280;5303;53.266;10.410;2023-04-27T12:12:20;101769.75;;;11.19;40.83
10510;BME280;5303;53.266;10.410;2023-04-27T12:14:47;101766.31;;;11.28;39.67
10510;BME280;5303;53.266;10.410;2023-04-27T12:17:12;101759.34;;;11.36;38.55
10510;BME280;5303;53.266;10.410;2023-04-27T12:19:38;101765.63;;;11.50;38.33
10510;BME280;5303;53.266;10.410;2023-04-27T12:22:04;101773.38;;;11.31;38.37
10510;BME280;5303;53.266;10.410;2023-04-27T12:24:29;101768.97;;;11.28;38.39
10510;BME280;5303;53.266;10.410;2023-04-27T12:26:55;101775.03;;;11.16;39.60
10510;BME280;5303;53.266;10.410;2023-04-27T12:29:20;101768.06;;;11.26;38.50
10510;BME280;5303;53.266;10.410;2023-04-27T12:31:46;101768.00;;;11.20;39.68
10510;BME280;5303;53.266;10.410;2023-04-27T12:34:11;101769.91;;;11.35;38.79
10510;BME280;5303;53.266;10.410;2023-04-27T12:36:37;101768.09;;;11.32;38.71
10510;BME280;5303;53.266;10.410;2023-04-27T12:39:17;101767.09;;;11.18;39.40
10510;BME280;5303;53.266;10.410;2023-04-27T12:41:43;101766.13;;;11.10;39.81
10510;BME280;5303;53.266;10.410;2023-04-27T12:44:09;101771.59;;;11.28;38.89
10510;BME280;5303;53.266;10.410;2023-04-27T12:46:34;101767.13;;;11.21;38.16
10510;BME280;5303;53.266;10.410;2023-04-27T12:49:00;101767.88;;;11.08;37.37
10510;BME280;5303;53.266;10.410;2023-04-27T12:51:26;101774.84;;;11.00;39.10
10510;BME280;5303;53.266;10.410;2023-04-27T12:53:53;101772.19;;;10.98;39.47
10510;BME280;5303;53.266;10.410;2023-04-27T12:56:18;101767.00;;;11.09;39.02
10510;BME280;5303;53.266;10.410;2023-04-27T12:58:43;101768.69;;;11.01;39.92
10510;BME280;5303;53.266;10.410;2023-04-27T13:01:09;101770.50;;;11.05;40.12